sensor_id;sensor_type;location;lat;lon;timestamp;P1;durP1;ratioP1;P2;durP2;ratioP2
15990;SDS011;8100;50.994;4.538;2023-11-21T00:00:05;24.33;;;12.65;;
15990;SDS011;8100;50.994;4.538;2023-11-21T00:02:58;21.58;;;10.55;;
15990;SDS011;8100;50.994;4.538;2023-11-21T00:05:46;23.55;;;12.00;;
15990;SDS011;8100;50.994;4.538;2023-11-21T00:08:33;19.42;;;11.55;;
15990;SDS011;8100;50.994;4.538;2023-11-21T00:11:21;20.40;;;11.45;;
15990;SDS011;8100;50.994;4.538;2023-11-21T00:14:08;19.48;;;11.68;;
15990;SDS011;8100;50.994;4.538;2023-11-21T00:16:55;18.85;;;11.18;;
15990;SDS011;8100;50.994;4.538;2023-11-21T00:19:42;24.00;;;11.95;;
15990;SDS011;8100;50.994;4.538;2023-11-21T00:22:31;21.35;;;11.45;;
15990;SDS011;8100;50.994;4.538;2023-11-21T00:25:18;19.70;;;11.25;;
15990;SDS011;8100;50.994;4.538;2023-11-21T00:28:05;21.25;;;11.15;;
15990;SDS011;8100;50.994;4.538;2023-11-21T00:30:53;19.98;;;11.55;;
15990;SDS011;8100;50.994;4.538;2023-11-21T00:33:40;20.25;;;11.65;;
15990;SDS011;8100;50.994;4.538;2023-11-21T00:36:27;22.80;;;11.68;;
15990;SDS011;8100;50.994;4.538;2023-11-21T00:39:16;21.20;;;10.82;;
15990;SDS011;8100;50.994;4.538;2023-11-21T00:42:03;21.23;;;10.80;;
15990;SDS011;8100;50.994;4.538;2023-11-21T00:44:50;23.75;;;11.70;;
15990;SDS011;8100;50.994;4.538;2023-11-21T00:47:37;15.38;;;9.15;;
15990;SDS011;8100;50.994;4.538;2023-11-21T00:50:25;21.63;;;10.85;;
15990;SDS011;8100;50.994;4.538;2023-11-21T00:53:12;21.15;;;11.52;;
15990;SDS011;8100;50.994;4.538;2023-11-21T00:56:01;19.25;;;10.45;;
15990;SDS011;8100;50.994;4.538;2023-11-21T00:58:49;18.77;;;9.35;;
15990;SDS011;8100;50.994;4.538;2023-11-21T01:01:37;20.13;;;11.00;;
15990;SDS011;8100;50.994;4.538;2023-11-21T01:04:24;21.08;;;11.27;;
15990;SDS011;8100;50.994;4.538;2023-11-21T01:07:12;24.38;;;11.10;;
15990;SDS011;8100;50.994;4.538;2023-11-21T01:09:59;23.05;;;11.30;;
15990;SDS011;8100;50.994;4.538;2023-11-21T01:12:47;23.95;;;11.55;;
15990;SDS011;8100;50.994;4.538;2023-11-21T01:15:34;21.80;;;10.40;;
15990;SDS011;8100;50.994;4.538;2023-11-21T01:18:22;21.92;;;11.18;;
15990;SDS011;8100;50.994;4.538;2023-11-21T01:21:11;21.35;;;10.98;;
15990;SDS011;8100;50.994;4.538;2023-11-21T01:23:58;28.90;;;11.57;;
15990;SDS011;8100;50.994;4.538;2023-11-21T01:26:45;21.40;;;11.02;;
15990;SDS011;8100;50.994;4.538;2023-11-21T01:29:33;23.77;;;11.60;;
15990;SDS011;8100;50.994;4.538;2023-11-21T01:32:21;20.75;;;10.82;;
15990;SDS011;8100;50.994;4.538;2023-11-21T01:35:08;19.13;;;10.30;;
15990;SDS011;8100;50.994;4.538;2023-11-21T01:37:56;26.55;;;11.27;;
15990;SDS011;8100;50.994;4.538;2023-11-21T01:40:43;20.10;;;10.48;;
15990;SDS011;8100;50.994;4.538;2023-11-21T01:43:30;21.55;;;10.43;;
15990;SDS011;8100;50.994;4.538;2023-11-21T01:46:19;22.10;;;10.18;;
15990;SDS011;8100;50.994;4.538;2023-11-21T01:49:06;21.90;;;10.57;;
15990;SDS011;8100;50.994;4.538;2023-11-21T01:51:55;20.17;;;10.02;;
15990;SDS011;8100;50.994;4.538;2023-11-21T01:54:43;22.50;;;10.32;;
15990;SDS011;8100;50.994;4.538;2023-11-21T01:57:31;22.30;;;10.32;;
15990;SDS011;8100;50.994;4.538;2023-11-21T02:00:18;20.58;;;9.75;;
15990;SDS011;8100;50.994;4.538;2023-11-21T02:03:07;21.48;;;10.07;;
15990;SDS011;8100;50.994;4.538;2023-11-21T02:05:55;24.13;;;10.52;;
15990;SDS011;8100;50.994;4.538;2023-11-21T02:08:43;20.80;;;9.52;;
15990;SDS011;8100;50.994;4.538;2023-11-21T02:11:30;18.98;;;9.60;;
15990;SDS011;8100;50.994;4.538;2023-11-21T02:14:20;20.65;;;9.50;;
15990;SDS011;8100;50.994;4.538;2023-11-21T02:17:08;21.35;;;10.20;;
15990;SDS011;8100;50.994;4.538;2023-11-21T02:19:56;22.30;;;9.82;;
15990;SDS011;8100;50.994;4.538;2023-11-21T02:22:49;18.55;;;9.65;;
15990;SDS011;8100;50.994;4.538;2023-11-21T02:25:37;19.17;;;9.10;;
15990;SDS011;8100;50.994;4.538;2023-11-21T02:28:25;18.45;;;9.27;;
15990;SDS011;8100;50.994;4.538;2023-11-21T02:31:12;20.38;;;9.40;;
15990;SDS011;8100;50.994;4.538;2023-11-21T02:33:59;21.17;;;10.15;;
15990;SDS011;8100;50.994;4.538;2023-11-21T02:36:47;18.80;;;9.32;;
15990;SDS011;8100;50.994;4.538;2023-11-21T02:39:36;18.90;;;8.77;;
15990;SDS011;8100;50.994;4.538;2023-11-21T02:42:23;19.65;;;9.38;;
15990;SDS011;8100;50.994;4.538;2023-11-21T02:45:10;18.55;;;9.18;;
15990;SDS011;8100;50.994;4.538;2023-11-21T02:47:59;17.52;;;9.10;;
15990;SDS011;8100;50.994;4.538;2023-11-21T02:50:47;19.08;;;8.80;;
15990;SDS011;8100;50.994;4.538;2023-11-21T02:53:34;16.38;;;8.88;;
15990;SDS011;8100;50.994;4.538;2023-11-21T02:56:22;19.05;;;9.07;;
15990;SDS011;8100;50.994;4.538;2023-11-21T02:59:10;20.38;;;9.88;;
15990;SDS011;8100;50.994;4.538;2023-11-21T03:01:57;18.88;;;8.60;;
15990;SDS011;8100;50.994;4.538;2023-11-21T03:04:44;19.75;;;9.20;;
15990;SDS011;8100;50.994;4.538;2023-11-21T03:07:33;21.02;;;9.50;;
15990;SDS011;8100;50.994;4.538;2023-11-21T03:10:21;23.35;;;9.07;;
15990;SDS011;8100;50.994;4.538;2023-11-21T03:13:10;19.45;;;9.05;;
15990;SDS011;8100;50.994;4.538;2023-11-21T03:15:57;17.25;;;8.13;;
15990;SDS011;8100;50.994;4.538;2023-11-21T03:18:44;17.85;;;8.77;;
15990;SDS011;8100;50.994;4.538;2023-11-21T03:21:31;18.15;;;8.57;;
15990;SDS011;8100;50.994;4.538;2023-11-21T03:24:19;19.23;;;8.50;;
15990;SDS011;8100;50.994;4.538;2023-11-21T03:27:07;18.98;;;8.73;;
15990;SDS011;8100;50.994;4.538;2023-11-21T03:29:56;17.25;;;8.35;;
15990;SDS011;8100;50.994;4.538;2023-11-21T03:32:43;19.90;;;8.25;;
15990;SDS011;8100;50.994;4.538;2023-11-21T03:35:30;17.67;;;8.18;;
15990;SDS011;8100;50.994;4.538;2023-11-21T03:38:18;15.20;;;8.10;;
15990;SDS011;8100;50.994;4.538;2023-11-21T03:41:05;18.35;;;8.48;;
15990;SDS011;8100;50.994;4.538;2023-11-21T03:43:53;18.17;;;8.20;;
15990;SDS011;8100;50.994;4.538;2023-11-21T03:46:41;17.60;;;8.38;;
15990;SDS011;8100;50.994;4.538;2023-11-21T03:49:28;19.92;;;8.27;;
15990;SDS011;8100;50.994;4.538;2023-11-21T03:52:16;20.35;;;9.07;;
15990;SDS011;8100;50.994;4.538;2023-11-21T03:55:03;15.60;;;8.15;;
15990;SDS011;8100;50.994;4.538;2023-11-21T03:57:51;16.85;;;8.68;;
15990;SDS011;8100;50.994;4.538;2023-11-21T04:00:38;15.95;;;7.93;;
15990;SDS011;8100;50.994;4.538;2023-11-21T04:03:26;21.13;;;8.35;;
15990;SDS011;8100;50.994;4.538;2023-11-21T04:06:14;16.30;;;8.25;;
15990;SDS011;8100;50.994;4.538;2023-11-21T04:09:01;18.52;;;8.13;;
15990;SDS011;8100;50.994;4.538;2023-11-21T04:11:49;14.70;;;7.80;;
15990;SDS011;8100;50.994;4.538;2023-11-21T04:14:37;16.75;;;8.02;;
15990;SDS011;8100;50.994;4.538;2023-11-21T04:17:24;15.95;;;7.78;;
15990;SDS011;8100;50.994;4.538;2023-11-21T04:20:13;17.35;;;7.35;;
15990;SDS011;8100;50.994;4.538;2023-11-21T04:23:00;18.35;;;7.68;;
15990;SDS011;8100;50.994;4.538;2023-11-21T04:25:48;16.42;;;7.93;;
15990;SDS011;8100;50.994;4.538;2023-11-21T04:28:36;16.58;;;7.20;;
15990;SDS011;8100;50.994;4.538;2023-11-21T04:31:23;17.65;;;7.63;;
15990;SDS011;8100;50.994;4.538;2023-11-21T04:34:10;13.63;;;7.30;;
15990;SDS011;8100;50.994;4.538;2023-11-21T04:36:59;16.33;;;7.32;;
15990;SDS011;8100;50.994;4.538;2023-11-21T04:39:46;16.92;;;7.03;;
15990;SDS011;8100;50.994;4.538;2023-11-21T04:42:34;14.63;;;6.90;;
15990;SDS011;8100;50.994;4.538;2023-11-21T04:45:22;15.40;;;7.63;;
15990;SDS011;8100;50.994;4.538;2023-11-21T04:48:09;12.95;;;6.65;;
15990;SDS011;8100;50.994;4.538;2023-11-21T04:50:56;12.60;;;7.30;;
15990;SDS011;8100;50.994;4.538;2023-11-21T04:53:45;12.55;;;6.70;;
15990;SDS011;8100;50.994;4.538;2023-11-21T04:56:32;11.68;;;6.55;;
15990;SDS011;8100;50.994;4.538;2023-11-21T04:59:19;13.85;;;6.97;;
15990;SDS011;8100;50.994;4.538;2023-11-21T05:02:10;13.75;;;6.53;;
15990;SDS011;8100;50.994;4.538;2023-11-21T05:04:57;13.75;;;7.32;;
15990;SDS011;8100;50.994;4.538;2023-11-21T05:07:45;14.07;;;6.53;;
15990;SDS011;8100;50.994;4.538;2023-11-21T05:10:33;14.60;;;6.80;;
15990;SDS011;8100;50.994;4.538;2023-11-21T05:13:23;15.75;;;7.40;;
15990;SDS011;8100;50.994;4.538;2023-11-21T05:16:12;13.25;;;6.88;;
15990;SDS011;8100;50.994;4.538;2023-11-21T05:19:00;16.13;;;6.53;;
15990;SDS011;8100;50.994;4.538;2023-11-21T05:21:47;14.68;;;6.93;;
15990;SDS011;8100;50.994;4.538;2023-11-21T05:24:34;14.35;;;6.38;;
15990;SDS011;8100;50.994;4.538;2023-11-21T05:27:23;13.80;;;7.10;;
15990;SDS011;8100;50.994;4.538;2023-11-21T05:30:10;21.00;;;7.57;;
15990;SDS011;8100;50.994;4.538;2023-11-21T05:32:58;20.70;;;7.20;;
15990;SDS011;8100;50.994;4.538;2023-11-21T05:35:45;14.43;;;7.30;;
15990;SDS011;8100;50.994;4.538;2023-11-21T05:38:33;13.30;;;6.85;;
15990;SDS011;8100;50.994;4.538;2023-11-21T05:41:21;13.88;;;7.20;;
15990;SDS011;8100;50.994;4.538;2023-11-21T05:44:10;15.30;;;7.32;;
15990;SDS011;8100;50.994;4.538;2023-11-21T05:46:59;11.55;;;6.60;;
15990;SDS011;8100;50.994;4.538;2023-11-21T05:49:47;20.90;;;7.50;;
15990;SDS011;8100;50.994;4.538;2023-11-21T05:52:36;12.55;;;6.75;;
15990;SDS011;8100;50.994;4.538;2023-11-21T05:55:23;14.02;;;7.03;;
15990;SDS011;8100;50.994;4.538;2023-11-21T05:58:11;17.92;;;7.15;;
15990;SDS011;8100;50.994;4.538;2023-11-21T06:01:00;15.25;;;7.78;;
15990;SDS011;8100;50.994;4.538;2023-11-21T06:03:48;16.90;;;7.63;;
15990;SDS011;8100;50.994;4.538;2023-11-21T06:06:35;18.45;;;7.88;;
15990;SDS011;8100;50.994;4.538;2023-11-21T06:09:22;15.45;;;7.65;;
15990;SDS011;8100;50.994;4.538;2023-11-21T06:12:10;18.95;;;8.40;;
15990;SDS011;8100;50.994;4.538;2023-11-21T06:14:57;17.08;;;7.57;;
15990;SDS011;8100;50.994;4.538;2023-11-21T06:17:46;13.80;;;7.63;;
15990;SDS011;8100;50.994;4.538;2023-11-21T06:20:37;16.42;;;8.02;;
15990;SDS011;8100;50.994;4.538;2023-11-21T06:23:24;17.92;;;8.18;;
15990;SDS011;8100;50.994;4.538;2023-11-21T06:26:12;17.20;;;7.70;;
15990;SDS011;8100;50.994;4.538;2023-11-21T06:28:59;14.70;;;7.85;;
15990;SDS011;8100;50.994;4.538;2023-11-21T06:31:48;18.83;;;7.93;;
15990;SDS011;8100;50.994;4.538;2023-11-21T06:34:37;13.80;;;7.78;;
15990;SDS011;8100;50.994;4.538;2023-11-21T06:37:24;15.35;;;7.55;;
15990;SDS011;8100;50.994;4.538;2023-11-21T06:40:12;14.48;;;7.32;;
15990;SDS011;8100;50.994;4.538;2023-11-21T06:43:00;16.67;;;8.20;;
15990;SDS011;8100;50.994;4.538;2023-11-21T06:45:47;13.63;;;7.82;;
15990;SDS011;8100;50.994;4.538;2023-11-21T06:48:35;12.35;;;7.03;;
15990;SDS011;8100;50.994;4.538;2023-11-21T06:51:25;15.60;;;7.82;;
15990;SDS011;8100;50.994;4.538;2023-11-21T06:54:12;16.05;;;8.50;;
15990;SDS011;8100;50.994;4.538;2023-11-21T06:57:00;12.95;;;7.78;;
15990;SDS011;8100;50.994;4.538;2023-11-21T06:59:48;17.20;;;8.45;;
15990;SDS011;8100;50.994;4.538;2023-11-21T07:02:35;15.60;;;8.98;;
15990;SDS011;8100;50.994;4.538;2023-11-21T07:05:23;13.95;;;7.97;;
15990;SDS011;8100;50.994;4.538;2023-11-21T07:08:12;18.95;;;8.55;;
15990;SDS011;8100;50.994;4.538;2023-11-21T07:10:59;14.75;;;7.57;;
15990;SDS011;8100;50.994;4.538;2023-11-21T07:13:48;20.17;;;9.23;;
15990;SDS011;8100;50.994;4.538;2023-11-21T07:16:36;19.70;;;8.57;;
15990;SDS011;8100;50.994;4.538;2023-11-21T07:19:24;16.77;;;8.05;;
15990;SDS011;8100;50.994;4.538;2023-11-21T07:22:11;16.05;;;8.05;;
15990;SDS011;8100;50.994;4.538;2023-11-21T07:25:00;16.77;;;8.57;;
15990;SDS011;8100;50.994;4.538;2023-11-21T07:27:48;13.88;;;7.95;;
15990;SDS011;8100;50.994;4.538;2023-11-21T07:30:35;17.08;;;8.40;;
15990;SDS011;8100;50.994;4.538;2023-11-21T07:33:23;14.80;;;7.80;;
15990;SDS011;8100;50.994;4.538;2023-11-21T07:36:11;17.48;;;9.10;;
15990;SDS011;8100;50.994;4.538;2023-11-21T07:38:58;15.55;;;7.95;;
15990;SDS011;8100;50.994;4.538;2023-11-21T07:41:47;18.17;;;8.55;;
15990;SDS011;8100;50.994;4.538;2023-11-21T07:44:35;16.05;;;7.95;;
15990;SDS011;8100;50.994;4.538;2023-11-21T07:47:22;11.40;;;5.78;;
15990;SDS011;8100;50.994;4.538;2023-11-21T07:50:12;12.52;;;6.55;;
15990;SDS011;8100;50.994;4.538;2023-11-21T07:53:00;13.20;;;6.75;;
15990;SDS011;8100;50.994;4.538;2023-11-21T07:55:47;12.23;;;6.28;;
15990;SDS011;8100;50.994;4.538;2023-11-21T07:58:36;11.65;;;6.22;;
15990;SDS011;8100;50.994;4.538;2023-11-21T08:01:23;12.18;;;6.60;;
15990;SDS011;8100;50.994;4.538;2023-11-21T08:04:10;11.43;;;6.43;;
15990;SDS011;8100;50.994;4.538;2023-11-21T08:06:58;11.25;;;6.47;;
15990;SDS011;8100;50.994;4.538;2023-11-21T08:09:45;13.65;;;7.10;;
15990;SDS011;8100;50.994;4.538;2023-11-21T08:12:35;13.25;;;6.40;;
15990;SDS011;8100;50.994;4.538;2023-11-21T08:15:25;11.27;;;5.65;;
15990;SDS011;8100;50.994;4.538;2023-11-21T08:18:12;13.13;;;6.57;;
15990;SDS011;8100;50.994;4.538;2023-11-21T08:21:00;12.80;;;6.05;;
15990;SDS011;8100;50.994;4.538;2023-11-21T08:23:48;11.68;;;6.30;;
15990;SDS011;8100;50.994;4.538;2023-11-21T08:26:39;12.57;;;6.20;;
15990;SDS011;8100;50.994;4.538;2023-11-21T08:29:27;10.43;;;5.90;;
15990;SDS011;8100;50.994;4.538;2023-11-21T08:32:15;13.07;;;6.90;;
15990;SDS011;8100;50.994;4.538;2023-11-21T08:35:03;15.32;;;6.75;;
15990;SDS011;8100;50.994;4.538;2023-11-21T08:37:51;11.07;;;5.90;;
15990;SDS011;8100;50.994;4.538;2023-11-21T08:40:39;14.05;;;6.90;;
15990;SDS011;8100;50.994;4.538;2023-11-21T08:43:26;12.45;;;6.18;;
15990;SDS011;8100;50.994;4.538;2023-11-21T08:46:14;11.18;;;6.32;;
15990;SDS011;8100;50.994;4.538;2023-11-21T08:49:04;10.15;;;5.85;;
15990;SDS011;8100;50.994;4.538;2023-11-21T08:51:51;12.77;;;6.75;;
15990;SDS011;8100;50.994;4.538;2023-11-21T08:54:40;10.85;;;5.97;;
15990;SDS011;8100;50.994;4.538;2023-11-21T08:57:29;10.95;;;5.93;;
15990;SDS011;8100;50.994;4.538;2023-11-21T09:00:16;11.98;;;5.75;;
15990;SDS011;8100;50.994;4.538;2023-11-21T09:03:04;11.65;;;6.22;;
15990;SDS011;8100;50.994;4.538;2023-11-21T09:05:55;11.10;;;5.85;;
15990;SDS011;8100;50.994;4.538;2023-11-21T09:08:42;13.88;;;6.45;;
15990;SDS011;8100;50.994;4.538;2023-11-21T09:11:29;11.48;;;6.00;;
15990;SDS011;8100;50.994;4.538;2023-11-21T09:14:19;12.75;;;5.57;;
15990;SDS011;8100;50.994;4.538;2023-11-21T09:17:06;13.75;;;6.60;;
15990;SDS011;8100;50.994;4.538;2023-11-21T09:19:56;12.65;;;6.38;;
15990;SDS011;8100;50.994;4.538;2023-11-21T09:22:44;13.50;;;6.20;;
15990;SDS011;8100;50.994;4.538;2023-11-21T09:25:32;12.20;;;6.25;;
15990;SDS011;8100;50.994;4.538;2023-11-21T09:28:20;14.18;;;6.40;;
15990;SDS011;8100;50.994;4.538;2023-11-21T09:31:07;15.32;;;6.47;;
15990;SDS011;8100;50.994;4.538;2023-11-21T09:33:55;12.25;;;5.97;;
15990;SDS011;8100;50.994;4.538;2023-11-21T09:36:44;18.55;;;8.10;;
15990;SDS011;8100;50.994;4.538;2023-11-21T09:39:33;18.88;;;8.88;;
15990;SDS011;8100;50.994;4.538;2023-11-21T09:42:23;17.25;;;7.90;;
15990;SDS011;8100;50.994;4.538;2023-11-21T09:45:17;14.70;;;7.20;;
15990;SDS011;8100;50.994;4.538;2023-11-21T09:48:11;11.23;;;5.80;;
15990;SDS011;8100;50.994;4.538;2023-11-21T09:50:58;15.05;;;6.80;;
15990;SDS011;8100;50.994;4.538;2023-11-21T09:53:49;14.02;;;6.45;;
15990;SDS011;8100;50.994;4.538;2023-11-21T09:56:40;15.27;;;7.22;;
15990;SDS011;8100;50.994;4.538;2023-11-21T09:59:28;12.48;;;6.15;;
15990;SDS011;8100;50.994;4.538;2023-11-21T10:02:17;14.65;;;7.38;;
15990;SDS011;8100;50.994;4.538;2023-11-21T10:05:06;13.05;;;5.93;;
15990;SDS011;8100;50.994;4.538;2023-11-21T10:07:55;12.00;;;5.57;;
15990;SDS011;8100;50.994;4.538;2023-11-21T10:10:44;11.80;;;5.60;;
15990;SDS011;8100;50.994;4.538;2023-11-21T10:13:34;11.35;;;5.90;;
15990;SDS011;8100;50.994;4.538;2023-11-21T10:16:23;13.88;;;5.95;;
15990;SDS011;8100;50.994;4.538;2023-11-21T10:19:12;20.42;;;5.80;;
15990;SDS011;8100;50.994;4.538;2023-11-21T10:22:01;9.93;;;5.95;;
15990;SDS011;8100;50.994;4.538;2023-11-21T10:24:49;11.85;;;5.53;;
15990;SDS011;8100;50.994;4.538;2023-11-21T10:27:36;12.63;;;5.60;;
15990;SDS011;8100;50.994;4.538;2023-11-21T10:30:29;13.18;;;6.07;;
15990;SDS011;8100;50.994;4.538;2023-11-21T10:33:26;12.45;;;6.10;;
15990;SDS011;8100;50.994;4.538;2023-11-21T10:36:19;12.88;;;6.15;;
15990;SDS011;8100;50.994;4.538;2023-11-21T10:39:13;12.80;;;5.95;;
15990;SDS011;8100;50.994;4.538;2023-11-21T10:42:04;14.52;;;6.95;;
15990;SDS011;8100;50.994;4.538;2023-11-21T10:44:54;16.35;;;8.80;;
15990;SDS011;8100;50.994;4.538;2023-11-21T10:47:43;22.83;;;12.00;;
15990;SDS011;8100;50.994;4.538;2023-11-21T10:50:32;18.92;;;10.20;;
15990;SDS011;8100;50.994;4.538;2023-11-21T10:53:20;22.10;;;12.00;;
15990;SDS011;8100;50.994;4.538;2023-11-21T10:56:08;32.90;;;17.67;;
15990;SDS011;8100;50.994;4.538;2023-11-21T10:58:57;23.48;;;11.02;;
15990;SDS011;8100;50.994;4.538;2023-11-21T11:01:44;18.73;;;8.95;;
15990;SDS011;8100;50.994;4.538;2023-11-21T11:04:33;16.88;;;8.27;;
15990;SDS011;8100;50.994;4.538;2023-11-21T11:07:25;19.02;;;8.25;;
15990;SDS011;8100;50.994;4.538;2023-11-21T11:10:13;15.27;;;7.25;;
15990;SDS011;8100;50.994;4.538;2023-11-21T11:13:01;12.57;;;5.78;;
15990;SDS011;8100;50.994;4.538;2023-11-21T11:15:48;10.43;;;5.28;;
15990;SDS011;8100;50.994;4.538;2023-11-21T11:18:36;12.45;;;5.55;;
15990;SDS011;8100;50.994;4.538;2023-11-21T11:21:27;7.22;;;3.70;;
15990;SDS011;8100;50.994;4.538;2023-11-21T11:24:39;7.28;;;3.70;;
15990;SDS011;8100;50.994;4.538;2023-11-21T11:27:44;5.13;;;2.97;;
15990;SDS011;8100;50.994;4.538;2023-11-21T11:30:41;5.40;;;3.03;;
15990;SDS011;8100;50.994;4.538;2023-11-21T11:33:41;5.50;;;2.58;;
15990;SDS011;8100;50.994;4.538;2023-11-21T11:36:34;4.85;;;3.08;;
15990;SDS011;8100;50.994;4.538;2023-11-21T11:39:28;4.25;;;2.25;;
15990;SDS011;8100;50.994;4.538;2023-11-21T11:42:16;4.97;;;2.90;;
15990;SDS011;8100;50.994;4.538;2023-11-21T11:45:17;5.57;;;2.97;;
15990;SDS011;8100;50.994;4.538;2023-11-21T11:48:05;7.18;;;2.75;;
15990;SDS011;8100;50.994;4.538;2023-11-21T11:51:01;6.50;;;2.63;;
15990;SDS011;8100;50.994;4.538;2023-11-21T11:53:51;5.30;;;3.00;;
15990;SDS011;8100;50.994;4.538;2023-11-21T11:56:39;6.03;;;2.88;;
15990;SDS011;8100;50.994;4.538;2023-11-21T11:59:26;4.43;;;2.40;;
15990;SDS011;8100;50.994;4.538;2023-11-21T12:02:13;4.63;;;2.20;;
15990;SDS011;8100;50.994;4.538;2023-11-21T12:05:02;3.78;;;2.15;;
15990;SDS011;8100;50.994;4.538;2023-11-21T12:07:56;4.53;;;2.40;;
15990;SDS011;8100;50.994;4.538;2023-11-21T12:10:45;2.58;;;1.85;;
15990;SDS011;8100;50.994;4.538;2023-11-21T12:13:34;4.95;;;2.20;;
15990;SDS011;8100;50.994;4.538;2023-11-21T12:16:23;2.83;;;1.70;;
15990;SDS011;8100;50.994;4.538;2023-11-21T12:19:12;2.80;;;1.92;;
15990;SDS011;8100;50.994;4.538;2023-11-21T12:22:00;2.53;;;1.80;;
15990;SDS011;8100;50.994;4.538;2023-11-21T12:24:47;3.80;;;2.17;;
15990;SDS011;8100;50.994;4.538;2023-11-21T12:27:35;2.50;;;1.73;;
15990;SDS011;8100;50.994;4.538;2023-11-21T12:30:23;3.13;;;2.13;;
15990;SDS011;8100;50.994;4.538;2023-11-21T12:33:13;3.20;;;1.73;;
15990;SDS011;8100;50.994;4.538;2023-11-21T12:36:03;3.25;;;2.00;;
15990;SDS011;8100;50.994;4.538;2023-11-21T12:38:51;2.35;;;1.73;;
15990;SDS011;8100;50.994;4.538;2023-11-21T12:41:39;3.45;;;2.17;;
15990;SDS011;8100;50.994;4.538;2023-11-21T12:44:28;2.50;;;1.70;;
15990;SDS011;8100;50.994;4.538;2023-11-21T12:47:16;2.42;;;1.88;;
15990;SDS011;8100;50.994;4.538;2023-11-21T12:50:04;1.63;;;1.30;;
15990;SDS011;8100;50.994;4.538;2023-11-21T12:52:53;3.33;;;1.30;;
15990;SDS011;8100;50.994;4.538;2023-11-21T12:55:44;3.00;;;1.30;;
15990;SDS011;8100;50.994;4.538;2023-11-21T12:58:37;1.95;;;1.30;;
15990;SDS011;8100;50.994;4.538;2023-11-21T13:01:27;2.50;;;1.50;;
15990;SDS011;8100;50.994;4.538;2023-11-21T13:04:15;2.22;;;1.67;;
15990;SDS011;8100;50.994;4.538;2023-11-21T13:07:04;1.45;;;1.35;;
15990;SDS011;8100;50.994;4.538;2023-11-21T13:09:59;2.83;;;1.50;;
15990;SDS011;8100;50.994;4.538;2023-11-21T13:12:52;2.08;;;1.10;;
15990;SDS011;8100;50.994;4.538;2023-11-21T13:15:40;3.08;;;1.30;;
15990;SDS011;8100;50.994;4.538;2023-11-21T13:18:34;1.48;;;1.15;;
15990;SDS011;8100;50.994;4.538;2023-11-21T13:21:22;1.65;;;1.20;;
15990;SDS011;8100;50.994;4.538;2023-11-21T13:24:09;2.17;;;1.42;;
15990;SDS011;8100;50.994;4.538;2023-11-21T13:26:57;2.63;;;1.60;;
15990;SDS011;8100;50.994;4.538;2023-11-21T13:29:44;1.55;;;1.33;;
15990;SDS011;8100;50.994;4.538;2023-11-21T13:32:31;1.25;;;1.00;;
15990;SDS011;8100;50.994;4.538;2023-11-21T13:35:20;1.38;;;0.90;;
15990;SDS011;8100;50.994;4.538;2023-11-21T13:38:16;1.40;;;0.90;;
15990;SDS011;8100;50.994;4.538;2023-11-21T13:41:08;2.10;;;1.00;;
15990;SDS011;8100;50.994;4.538;2023-11-21T13:43:58;1.00;;;0.75;;
15990;SDS011;8100;50.994;4.538;2023-11-21T13:46:54;1.35;;;0.85;;
15990;SDS011;8100;50.994;4.538;2023-11-21T13:49:43;2.53;;;0.98;;
15990;SDS011;8100;50.994;4.538;2023-11-21T13:52:32;0.93;;;0.70;;
15990;SDS011;8100;50.994;4.538;2023-11-21T13:55:21;1.77;;;1.13;;
15990;SDS011;8100;50.994;4.538;2023-11-21T13:58:10;1.60;;;1.27;;
15990;SDS011;8100;50.994;4.538;2023-11-21T14:01:03;1.60;;;1.10;;
15990;SDS011;8100;50.994;4.538;2023-11-21T14:03:54;2.42;;;1.08;;
15990;SDS011;8100;50.994;4.538;2023-11-21T14:06:48;1.02;;;0.85;;
15990;SDS011;8100;50.994;4.538;2023-11-21T14:09:40;1.20;;;0.90;;
15990;SDS011;8100;50.994;4.538;2023-11-21T14:12:29;2.33;;;1.00;;
15990;SDS011;8100;50.994;4.538;2023-11-21T14:15:20;0.73;;;0.50;;
15990;SDS011;8100;50.994;4.538;2023-11-21T14:18:08;2.25;;;1.25;;
15990;SDS011;8100;50.994;4.538;2023-11-21T14:20:56;1.38;;;1.02;;
15990;SDS011;8100;50.994;4.538;2023-11-21T14:23:44;1.20;;;1.00;;
15990;SDS011;8100;50.994;4.538;2023-11-21T14:26:33;2.60;;;1.30;;
15990;SDS011;8100;50.994;4.538;2023-11-21T14:29:20;2.63;;;1.50;;
15990;SDS011;8100;50.994;4.538;2023-11-21T14:32:09;1.70;;;1.13;;
15990;SDS011;8100;50.994;4.538;2023-11-21T14:34:56;2.55;;;1.30;;
15990;SDS011;8100;50.994;4.538;2023-11-21T14:37:43;2.05;;;1.45;;
15990;SDS011;8100;50.994;4.538;2023-11-21T14:40:32;1.52;;;1.23;;
15990;SDS011;8100;50.994;4.538;2023-11-21T14:43:22;3.40;;;1.33;;
15990;SDS011;8100;50.994;4.538;2023-11-21T14:46:11;2.85;;;1.65;;
15990;SDS011;8100;50.994;4.538;2023-11-21T14:49:02;3.25;;;1.48;;
15990;SDS011;8100;50.994;4.538;2023-11-21T14:52:04;2.20;;;1.35;;
15990;SDS011;8100;50.994;4.538;2023-11-21T14:55:04;2.92;;;1.23;;
15990;SDS011;8100;50.994;4.538;2023-11-21T14:58:10;2.20;;;1.50;;
15990;SDS011;8100;50.994;4.538;2023-11-21T15:01:02;4.28;;;1.23;;
15990;SDS011;8100;50.994;4.538;2023-11-21T15:03:49;2.75;;;1.70;;
15990;SDS011;8100;50.994;4.538;2023-11-21T15:06:36;3.33;;;1.58;;
15990;SDS011;8100;50.994;4.538;2023-11-21T15:09:26;2.22;;;1.48;;
15990;SDS011;8100;50.994;4.538;2023-11-21T15:12:24;3.55;;;1.40;;
15990;SDS011;8100;50.994;4.538;2023-11-21T15:15:17;2.85;;;1.67;;
15990;SDS011;8100;50.994;4.538;2023-11-21T15:18:07;4.32;;;1.90;;
15990;SDS011;8100;50.994;4.538;2023-11-21T15:20:57;3.15;;;1.58;;
15990;SDS011;8100;50.994;4.538;2023-11-21T15:23:44;3.50;;;1.95;;
15990;SDS011;8100;50.994;4.538;2023-11-21T15:26:31;3.75;;;1.50;;
15990;SDS011;8100;50.994;4.538;2023-11-21T15:29:19;3.92;;;1.90;;
15990;SDS011;8100;50.994;4.538;2023-11-21T15:32:10;2.88;;;1.75;;
15990;SDS011;8100;50.994;4.538;2023-11-21T15:34:59;2.78;;;2.00;;
15990;SDS011;8100;50.994;4.538;2023-11-21T15:37:46;3.58;;;2.10;;
15990;SDS011;8100;50.994;4.538;2023-11-21T15:40:33;3.80;;;1.67;;
15990;SDS011;8100;50.994;4.538;2023-11-21T15:43:20;3.88;;;2.17;;
15990;SDS011;8100;50.994;4.538;2023-11-21T15:46:08;3.63;;;1.50;;
15990;SDS011;8100;50.994;4.538;2023-11-21T15:48:55;3.38;;;2.08;;
15990;SDS011;8100;50.994;4.538;2023-11-21T15:51:43;3.03;;;2.05;;
15990;SDS011;8100;50.994;4.538;2023-11-21T15:54:32;3.45;;;2.25;;
15990;SDS011;8100;50.994;4.538;2023-11-21T15:57:21;3.50;;;2.10;;
15990;SDS011;8100;50.994;4.538;2023-11-21T16:00:09;5.65;;;2.15;;
15990;SDS011;8100;50.994;4.538;2023-11-21T16:03:01;4.60;;;2.42;;
15990;SDS011;8100;50.994;4.538;2023-11-21T16:05:49;5.35;;;2.65;;
15990;SDS011;8100;50.994;4.538;2023-11-21T16:08:37;4.95;;;2.50;;
15990;SDS011;8100;50.994;4.538;2023-11-21T16:11:25;6.07;;;3.38;;
15990;SDS011;8100;50.994;4.538;2023-11-21T16:14:14;5.15;;;3.28;;
15990;SDS011;8100;50.994;4.538;2023-11-21T16:17:05;6.40;;;3.65;;
15990;SDS011;8100;50.994;4.538;2023-11-21T16:19:52;6.35;;;3.40;;
15990;SDS011;8100;50.994;4.538;2023-11-21T16:22:41;5.80;;;3.40;;
15990;SDS011;8100;50.994;4.538;2023-11-21T16:25:30;6.50;;;3.80;;
15990;SDS011;8100;50.994;4.538;2023-11-21T16:28:17;8.23;;;3.40;;
15990;SDS011;8100;50.994;4.538;2023-11-21T16:31:04;6.50;;;3.58;;
15990;SDS011;8100;50.994;4.538;2023-11-21T16:33:51;6.18;;;4.00;;
15990;SDS011;8100;50.994;4.538;2023-11-21T16:36:39;10.43;;;3.95;;
15990;SDS011;8100;50.994;4.538;2023-11-21T16:39:27;7.03;;;3.92;;
15990;SDS011;8100;50.994;4.538;2023-11-21T16:42:15;5.90;;;3.80;;
15990;SDS011;8100;50.994;4.538;2023-11-21T16:45:03;6.15;;;3.92;;
15990;SDS011;8100;50.994;4.538;2023-11-21T16:47:50;6.28;;;3.70;;
15990;SDS011;8100;50.994;4.538;2023-11-21T16:50:38;5.53;;;3.90;;
15990;SDS011;8100;50.994;4.538;2023-11-21T16:53:29;7.97;;;4.10;;
15990;SDS011;8100;50.994;4.538;2023-11-21T16:56:16;7.05;;;4.35;;
15990;SDS011;8100;50.994;4.538;2023-11-21T16:59:05;7.05;;;4.20;;